sensor_id;sensor_type;location;lat;lon;timestamp;P1;durP1;ratioP1;P2;durP2;ratioP2
20036;SDS011;10179;42.640;23.312;2023-09-08T00:02:02;11.32;;;7.68;;
20036;SDS011;10179;42.640;23.312;2023-09-08T00:04:27;10.40;;;7.95;;
20036;SDS011;10179;42.640;23.312;2023-09-08T00:06:53;13.20;;;7.80;;
20036;SDS011;10179;42.640;23.312;2023-09-08T00:09:18;14.65;;;8.00;;
20036;SDS011;10179;42.640;23.312;2023-09-08T00:11:44;9.57;;;7.15;;
20036;SDS011;10179;42.640;23.312;2023-09-08T00:14:09;8.82;;;6.20;;
20036;SDS011;10179;42.640;23.312;2023-09-08T00:16:34;7.70;;;6.18;;
20036;SDS011;10179;42.640;23.312;2023-09-08T00:19:00;13.82;;;5.82;;
20036;SDS011;10179;42.640;23.312;2023-09-08T00:21:25;7.25;;;5.07;;
20036;SDS011;10179;42.640;23.312;2023-09-08T00:23:51;7.85;;;4.70;;
20036;SDS011;10179;42.640;23.312;2023-09-08T00:26:17;8.55;;;4.53;;
20036;SDS011;10179;42.640;23.312;2023-09-08T00:28:43;9.20;;;4.30;;
20036;SDS011;10179;42.640;23.312;2023-09-08T00:31:08;6.72;;;4.63;;
20036;SDS011;10179;42.640;23.312;2023-09-08T00:33:33;7.05;;;4.30;;
20036;SDS011;10179;42.640;23.312;2023-09-08T00:35:59;8.45;;;4.18;;
20036;SDS011;10179;42.640;23.312;2023-09-08T00:38:24;6.13;;;3.80;;
20036;SDS011;10179;42.640;23.312;2023-09-08T00:40:55;6.57;;;3.97;;
20036;SDS011;10179;42.640;23.312;2023-09-08T00:43:41;8.23;;;3.60;;
20036;SDS011;10179;42.640;23.312;2023-09-08T00:46:06;5.90;;;4.05;;
20036;SDS011;10179;42.640;23.312;2023-09-08T00:48:33;4.65;;;3.22;;
20036;SDS011;10179;42.640;23.312;2023-09-08T00:50:59;5.53;;;3.30;;
20036;SDS011;10179;42.640;23.312;2023-09-08T00:53:25;7.38;;;3.45;;
20036;SDS011;10179;42.640;23.312;2023-09-08T00:55:51;4.82;;;3.50;;
20036;SDS011;10179;42.640;23.312;2023-09-08T00:58:17;5.80;;;3.17;;
20036;SDS011;10179;42.640;23.312;2023-09-08T01:00:42;12.63;;;3.33;;
20036;SDS011;10179;42.640;23.312;2023-09-08T01:03:09;6.47;;;3.38;;
20036;SDS011;10179;42.640;23.312;2023-09-08T01:05:36;6.45;;;3.85;;
20036;SDS011;10179;42.640;23.312;2023-09-08T01:08:01;4.03;;;2.88;;
20036;SDS011;10179;42.640;23.312;2023-09-08T01:10:27;6.35;;;3.40;;
20036;SDS011;10179;42.640;23.312;2023-09-08T01:12:53;6.95;;;3.38;;
20036;SDS011;10179;42.640;23.312;2023-09-08T01:15:18;4.60;;;3.30;;
20036;SDS011;10179;42.640;23.312;2023-09-08T01:17:44;7.13;;;3.17;;
20036;SDS011;10179;42.640;23.312;2023-09-08T01:20:13;5.28;;;3.38;;
20036;SDS011;10179;42.640;23.312;2023-09-08T01:25:50;6.90;;;3.55;;
20036;SDS011;10179;42.640;23.312;2023-09-08T01:28:19;4.85;;;3.40;;
20036;SDS011;10179;42.640;23.312;2023-09-08T01:30:46;7.35;;;3.53;;
20036;SDS011;10179;42.640;23.312;2023-09-08T01:33:13;4.93;;;3.33;;
20036;SDS011;10179;42.640;23.312;2023-09-08T01:35:38;4.07;;;3.28;;
20036;SDS011;10179;42.640;23.312;2023-09-08T01:38:04;5.78;;;3.40;;
20036;SDS011;10179;42.640;23.312;2023-09-08T01:40:30;7.97;;;4.25;;
20036;SDS011;10179;42.640;23.312;2023-09-08T01:42:55;5.38;;;3.47;;
20036;SDS011;10179;42.640;23.312;2023-09-08T01:45:20;6.00;;;3.72;;
20036;SDS011;10179;42.640;23.312;2023-09-08T01:47:46;7.88;;;3.83;;
20036;SDS011;10179;42.640;23.312;2023-09-08T01:50:11;6.32;;;3.90;;
20036;SDS011;10179;42.640;23.312;2023-09-08T01:52:37;9.07;;;3.72;;
20036;SDS011;10179;42.640;23.312;2023-09-08T01:55:02;6.97;;;4.20;;
20036;SDS011;10179;42.640;23.312;2023-09-08T01:57:28;6.50;;;4.22;;
20036;SDS011;10179;42.640;23.312;2023-09-08T01:59:53;7.10;;;4.00;;
20036;SDS011;10179;42.640;23.312;2023-09-08T02:02:19;6.38;;;4.10;;
20036;SDS011;10179;42.640;23.312;2023-09-08T02:04:44;5.47;;;3.72;;
20036;SDS011;10179;42.640;23.312;2023-09-08T02:07:09;7.03;;;3.95;;
20036;SDS011;10179;42.640;23.312;2023-09-08T02:09:35;8.07;;;4.47;;
20036;SDS011;10179;42.640;23.312;2023-09-08T02:12:02;7.68;;;4.05;;
20036;SDS011;10179;42.640;23.312;2023-09-08T02:14:28;8.88;;;4.28;;
20036;SDS011;10179;42.640;23.312;2023-09-08T02:16:54;9.52;;;4.22;;
20036;SDS011;10179;42.640;23.312;2023-09-08T02:19:20;7.72;;;4.40;;
20036;SDS011;10179;42.640;23.312;2023-09-08T02:21:45;6.60;;;4.47;;
20036;SDS011;10179;42.640;23.312;2023-09-08T02:24:11;8.65;;;4.53;;
20036;SDS011;10179;42.640;23.312;2023-09-08T02:26:37;10.23;;;4.50;;
20036;SDS011;10179;42.640;23.312;2023-09-08T02:29:03;5.30;;;4.32;;
20036;SDS011;10179;42.640;23.312;2023-09-08T02:31:29;5.65;;;3.92;;
20036;SDS011;10179;42.640;23.312;2023-09-08T02:33:54;8.23;;;4.43;;
20036;SDS011;10179;42.640;23.312;2023-09-08T02:36:19;9.27;;;4.43;;
20036;SDS011;10179;42.640;23.312;2023-09-08T02:38:53;7.78;;;4.50;;
20036;SDS011;10179;42.640;23.312;2023-09-08T02:41:19;7.38;;;3.72;;
20036;SDS011;10179;42.640;23.312;2023-09-08T02:43:44;7.65;;;4.43;;
20036;SDS011;10179;42.640;23.312;2023-09-08T02:46:10;9.70;;;4.55;;
20036;SDS011;10179;42.640;23.312;2023-09-08T02:48:35;6.28;;;4.13;;
20036;SDS011;10179;42.640;23.312;2023-09-08T02:51:01;8.45;;;5.13;;
20036;SDS011;10179;42.640;23.312;2023-09-08T02:53:26;6.25;;;4.13;;
20036;SDS011;10179;42.640;23.312;2023-09-08T02:55:54;9.23;;;4.57;;
20036;SDS011;10179;42.640;23.312;2023-09-08T02:58:20;6.80;;;5.05;;
20036;SDS011;10179;42.640;23.312;2023-09-08T03:00:45;8.80;;;5.07;;
20036;SDS011;10179;42.640;23.312;2023-09-08T03:03:11;12.07;;;5.07;;
20036;SDS011;10179;42.640;23.312;2023-09-08T03:05:36;6.70;;;5.28;;
20036;SDS011;10179;42.640;23.312;2023-09-08T03:08:02;10.50;;;5.90;;
20036;SDS011;10179;42.640;23.312;2023-09-08T03:10:28;9.15;;;5.38;;
20036;SDS011;10179;42.640;23.312;2023-09-08T03:12:53;9.18;;;5.35;;
20036;SDS011;10179;42.640;23.312;2023-09-08T03:15:20;10.38;;;5.18;;
20036;SDS011;10179;42.640;23.312;2023-09-08T03:17:45;6.57;;;5.00;;
20036;SDS011;10179;42.640;23.312;2023-09-08T03:20:11;9.23;;;5.13;;
20036;SDS011;10179;42.640;23.312;2023-09-08T03:22:38;15.55;;;5.50;;
20036;SDS011;10179;42.640;23.312;2023-09-08T03:25:04;7.93;;;5.13;;
20036;SDS011;10179;42.640;23.312;2023-09-08T03:27:30;9.18;;;4.85;;
20036;SDS011;10179;42.640;23.312;2023-09-08T03:29:55;10.95;;;5.05;;
20036;SDS011;10179;42.640;23.312;2023-09-08T03:32:21;9.15;;;4.97;;
20036;SDS011;10179;42.640;23.312;2023-09-08T03:34:46;10.32;;;5.38;;
20036;SDS011;10179;42.640;23.312;2023-09-08T03:37:12;9.10;;;5.35;;
20036;SDS011;10179;42.640;23.312;2023-09-08T03:39:37;9.48;;;5.40;;
20036;SDS011;10179;42.640;23.312;2023-09-08T03:42:03;12.35;;;5.90;;
20036;SDS011;10179;42.640;23.312;2023-09-08T03:44:28;7.65;;;5.18;;
20036;SDS011;10179;42.640;23.312;2023-09-08T03:46:54;11.77;;;5.80;;
20036;SDS011;10179;42.640;23.312;2023-09-08T03:49:19;7.80;;;5.45;;
20036;SDS011;10179;42.640;23.312;2023-09-08T03:51:45;8.05;;;5.50;;
20036;SDS011;10179;42.640;23.312;2023-09-08T03:54:10;7.43;;;5.53;;
20036;SDS011;10179;42.640;23.312;2023-09-08T03:56:36;13.32;;;6.50;;
20036;SDS011;10179;42.640;23.312;2023-09-08T03:59:01;10.48;;;6.20;;
20036;SDS011;10179;42.640;23.312;2023-09-08T04:01:26;9.73;;;6.30;;
20036;SDS011;10179;42.640;23.312;2023-09-08T04:03:52;8.68;;;5.90;;
20036;SDS011;10179;42.640;23.312;2023-09-08T04:06:17;11.88;;;5.85;;
20036;SDS011;10179;42.640;23.312;2023-09-08T04:08:42;14.43;;;6.60;;
20036;SDS011;10179;42.640;23.312;2023-09-08T04:11:08;10.50;;;6.50;;
20036;SDS011;10179;42.640;23.312;2023-09-08T04:13:33;13.00;;;7.22;;
20036;SDS011;10179;42.640;23.312;2023-09-08T04:15:59;12.68;;;6.60;;
20036;SDS011;10179;42.640;23.312;2023-09-08T04:18:24;12.65;;;6.78;;
20036;SDS011;10179;42.640;23.312;2023-09-08T04:20:49;14.95;;;7.30;;
20036;SDS011;10179;42.640;23.312;2023-09-08T04:23:15;11.02;;;7.03;;
20036;SDS011;10179;42.640;23.312;2023-09-08T04:25:40;10.32;;;6.65;;
20036;SDS011;10179;42.640;23.312;2023-09-08T04:28:06;11.43;;;6.45;;
20036;SDS011;10179;42.640;23.312;2023-09-08T04:30:31;11.27;;;6.40;;
20036;SDS011;10179;42.640;23.312;2023-09-08T04:32:56;13.48;;;7.07;;
20036;SDS011;10179;42.640;23.312;2023-09-08T04:35:22;9.95;;;6.80;;
20036;SDS011;10179;42.640;23.312;2023-09-08T04:37:47;15.20;;;6.78;;
20036;SDS011;10179;42.640;23.312;2023-09-08T04:40:13;10.27;;;7.05;;
20036;SDS011;10179;42.640;23.312;2023-09-08T04:42:39;9.25;;;5.93;;
20036;SDS011;10179;42.640;23.312;2023-09-08T04:45:04;7.32;;;5.78;;
20036;SDS011;10179;42.640;23.312;2023-09-08T04:47:31;11.38;;;5.97;;
20036;SDS011;10179;42.640;23.312;2023-09-08T04:49:57;9.10;;;5.80;;
20036;SDS011;10179;42.640;23.312;2023-09-08T04:52:22;11.32;;;6.10;;
20036;SDS011;10179;42.640;23.312;2023-09-08T04:54:48;9.15;;;5.50;;
20036;SDS011;10179;42.640;23.312;2023-09-08T04:57:13;7.40;;;5.13;;
20036;SDS011;10179;42.640;23.312;2023-09-08T04:59:39;9.70;;;4.70;;
20036;SDS011;10179;42.640;23.312;2023-09-08T05:02:04;6.53;;;4.15;;
20036;SDS011;10179;42.640;23.312;2023-09-08T05:04:30;8.15;;;4.65;;
20036;SDS011;10179;42.640;23.312;2023-09-08T05:06:55;10.00;;;4.38;;
20036;SDS011;10179;42.640;23.312;2023-09-08T05:09:20;8.02;;;3.60;;
20036;SDS011;10179;42.640;23.312;2023-09-08T05:11:46;4.65;;;3.30;;
20036;SDS011;10179;42.640;23.312;2023-09-08T05:14:11;6.60;;;4.03;;
20036;SDS011;10179;42.640;23.312;2023-09-08T05:16:37;6.35;;;3.75;;
20036;SDS011;10179;42.640;23.312;2023-09-08T05:19:09;6.75;;;3.75;;
20036;SDS011;10179;42.640;23.312;2023-09-08T05:21:35;8.25;;;3.80;;
20036;SDS011;10179;42.640;23.312;2023-09-08T05:24:02;9.82;;;4.35;;
20036;SDS011;10179;42.640;23.312;2023-09-08T05:26:27;6.75;;;3.78;;
20036;SDS011;10179;42.640;23.312;2023-09-08T05:28:53;7.45;;;3.50;;
20036;SDS011;10179;42.640;23.312;2023-09-08T05:31:18;12.25;;;4.25;;
20036;SDS011;10179;42.640;23.312;2023-09-08T05:33:44;7.32;;;3.75;;
20036;SDS011;10179;42.640;23.312;2023-09-08T05:36:09;7.82;;;4.07;;
20036;SDS011;10179;42.640;23.312;2023-09-08T05:38:34;7.18;;;3.65;;
20036;SDS011;10179;42.640;23.312;2023-09-08T05:41:00;12.98;;;3.70;;
20036;SDS011;10179;42.640;23.312;2023-09-08T05:43:25;8.13;;;3.85;;
20036;SDS011;10179;42.640;23.312;2023-09-08T05:45:51;5.45;;;3.20;;
20036;SDS011;10179;42.640;23.312;2023-09-08T05:48:16;4.03;;;3.20;;
20036;SDS011;10179;42.640;23.312;2023-09-08T05:50:42;12.07;;;3.22;;
20036;SDS011;10179;42.640;23.312;2023-09-08T05:53:07;8.48;;;3.45;;
20036;SDS011;10179;42.640;23.312;2023-09-08T05:55:33;4.28;;;3.10;;
20036;SDS011;10179;42.640;23.312;2023-09-08T05:57:58;6.20;;;2.72;;
20036;SDS011;10179;42.640;23.312;2023-09-08T06:00:23;7.03;;;3.22;;
20036;SDS011;10179;42.640;23.312;2023-09-08T06:02:49;8.13;;;3.35;;
20036;SDS011;10179;42.640;23.312;2023-09-08T06:05:14;6.15;;;3.20;;
20036;SDS011;10179;42.640;23.312;2023-09-08T06:07:40;8.40;;;3.40;;
20036;SDS011;10179;42.640;23.312;2023-09-08T06:10:05;9.02;;;3.15;;
20036;SDS011;10179;42.640;23.312;2023-09-08T06:12:31;5.20;;;2.60;;
20036;SDS011;10179;42.640;23.312;2023-09-08T06:14:56;8.07;;;2.95;;
20036;SDS011;10179;42.640;23.312;2023-09-08T06:17:22;4.53;;;2.83;;
20036;SDS011;10179;42.640;23.312;2023-09-08T06:19:47;7.72;;;3.13;;
20036;SDS011;10179;42.640;23.312;2023-09-08T06:22:13;5.43;;;2.80;;
20036;SDS011;10179;42.640;23.312;2023-09-08T06:24:38;5.40;;;2.70;;
20036;SDS011;10179;42.640;23.312;2023-09-08T06:27:03;5.18;;;2.85;;
20036;SDS011;10179;42.640;23.312;2023-09-08T06:29:29;5.05;;;2.67;;
20036;SDS011;10179;42.640;23.312;2023-09-08T06:31:54;5.55;;;2.85;;
20036;SDS011;10179;42.640;23.312;2023-09-08T06:34:20;4.18;;;2.55;;
20036;SDS011;10179;42.640;23.312;2023-09-08T06:36:48;9.05;;;2.90;;
20036;SDS011;10179;42.640;23.312;2023-09-08T06:39:14;5.88;;;3.00;;
20036;SDS011;10179;42.640;23.312;2023-09-08T06:41:39;6.35;;;2.70;;
20036;SDS011;10179;42.640;23.312;2023-09-08T06:44:05;3.53;;;2.60;;
20036;SDS011;10179;42.640;23.312;2023-09-08T06:46:30;4.63;;;2.63;;
20036;SDS011;10179;42.640;23.312;2023-09-08T06:48:56;4.20;;;2.80;;
20036;SDS011;10179;42.640;23.312;2023-09-08T06:51:21;4.15;;;2.47;;
20036;SDS011;10179;42.640;23.312;2023-09-08T06:53:54;5.35;;;2.70;;
20036;SDS011;10179;42.640;23.312;2023-09-08T06:56:21;5.45;;;2.47;;
20036;SDS011;10179;42.640;23.312;2023-09-08T06:58:46;3.70;;;2.53;;
20036;SDS011;10179;42.640;23.312;2023-09-08T07:01:12;6.25;;;3.00;;
20036;SDS011;10179;42.640;23.312;2023-09-08T07:03:37;5.18;;;2.55;;
20036;SDS011;10179;42.640;23.312;2023-09-08T07:06:03;10.30;;;3.05;;
20036;SDS011;10179;42.640;23.312;2023-09-08T07:08:28;6.32;;;2.95;;
20036;SDS011;10179;42.640;23.312;2023-09-08T07:10:54;10.65;;;2.90;;
20036;SDS011;10179;42.640;23.312;2023-09-08T07:13:20;6.35;;;2.83;;
20036;SDS011;10179;42.640;23.312;2023-09-08T07:15:46;4.32;;;2.42;;
20036;SDS011;10179;42.640;23.312;2023-09-08T07:18:11;8.93;;;3.00;;
20036;SDS011;10179;42.640;23.312;2023-09-08T07:20:36;3.40;;;2.45;;
20036;SDS011;10179;42.640;23.312;2023-09-08T07:23:02;5.10;;;2.72;;
20036;SDS011;10179;42.640;23.312;2023-09-08T07:25:27;7.63;;;3.08;;
20036;SDS011;10179;42.640;23.312;2023-09-08T07:27:52;6.75;;;3.00;;
20036;SDS011;10179;42.640;23.312;2023-09-08T07:30:19;6.40;;;2.40;;
20036;SDS011;10179;42.640;23.312;2023-09-08T07:32:47;7.05;;;2.60;;
20036;SDS011;10179;42.640;23.312;2023-09-08T07:35:13;3.50;;;2.35;;
20036;SDS011;10179;42.640;23.312;2023-09-08T07:37:42;8.25;;;2.25;;
20036;SDS011;10179;42.640;23.312;2023-09-08T07:40:09;8.00;;;2.80;;
20036;SDS011;10179;42.640;23.312;2023-09-08T07:42:35;5.55;;;2.40;;
20036;SDS011;10179;42.640;23.312;2023-09-08T07:45:01;2.65;;;2.28;;
20036;SDS011;10179;42.640;23.312;2023-09-08T07:47:26;7.40;;;2.33;;
20036;SDS011;10179;42.640;23.312;2023-09-08T07:49:51;4.40;;;2.10;;
20036;SDS011;10179;42.640;23.312;2023-09-08T07:52:17;4.90;;;2.40;;
20036;SDS011;10179;42.640;23.312;2023-09-08T07:54:42;5.03;;;2.17;;
20036;SDS011;10179;42.640;23.312;2023-09-08T07:57:08;3.13;;;2.33;;
20036;SDS011;10179;42.640;23.312;2023-09-08T07:59:33;3.47;;;2.38;;
20036;SDS011;10179;42.640;23.312;2023-09-08T08:01:59;3.97;;;2.40;;
20036;SDS011;10179;42.640;23.312;2023-09-08T08:04:24;3.50;;;2.33;;
20036;SDS011;10179;42.640;23.312;2023-09-08T08:06:50;3.35;;;2.58;;
20036;SDS011;10179;42.640;23.312;2023-09-08T08:09:15;5.25;;;2.53;;
20036;SDS011;10179;42.640;23.312;2023-09-08T08:11:40;3.97;;;2.92;;
20036;SDS011;10179;42.640;23.312;2023-09-08T08:14:06;8.00;;;2.15;;
20036;SDS011;10179;42.640;23.312;2023-09-08T08:16:32;3.72;;;2.30;;
20036;SDS011;10179;42.640;23.312;2023-09-08T08:18:57;7.93;;;2.70;;
20036;SDS011;10179;42.640;23.312;2023-09-08T08:21:24;3.55;;;2.13;;
20036;SDS011;10179;42.640;23.312;2023-09-08T08:23:50;5.00;;;2.35;;
20036;SDS011;10179;42.640;23.312;2023-09-08T08:26:16;7.70;;;2.60;;
20036;SDS011;10179;42.640;23.312;2023-09-08T08:28:42;5.22;;;2.40;;
20036;SDS011;10179;42.640;23.312;2023-09-08T08:31:08;8.10;;;2.45;;
20036;SDS011;10179;42.640;23.312;2023-09-08T08:33:33;4.88;;;2.17;;
20036;SDS011;10179;42.640;23.312;2023-09-08T08:35:59;5.65;;;2.20;;
20036;SDS011;10179;42.640;23.312;2023-09-08T08:38:25;6.30;;;2.05;;
20036;SDS011;10179;42.640;23.312;2023-09-08T08:40:50;3.63;;;1.95;;
20036;SDS011;10179;42.640;23.312;2023-09-08T08:43:16;3.30;;;2.40;;
20036;SDS011;10179;42.640;23.312;2023-09-08T08:45:41;4.40;;;2.50;;
20036;SDS011;10179;42.640;23.312;2023-09-08T08:48:08;3.25;;;2.03;;
20036;SDS011;10179;42.640;23.312;2023-09-08T08:50:34;3.90;;;2.50;;
20036;SDS011;10179;42.640;23.312;2023-09-08T08:53:01;6.63;;;2.55;;
20036;SDS011;10179;42.640;23.312;2023-09-08T08:55:28;4.85;;;2.25;;
20036;SDS011;10179;42.640;23.312;2023-09-08T08:57:55;5.00;;;2.50;;
20036;SDS011;10179;42.640;23.312;2023-09-08T09:00:32;3.70;;;2.60;;
20036;SDS011;10179;42.640;23.312;2023-09-08T09:02:59;4.50;;;2.28;;
20036;SDS011;10179;42.640;23.312;2023-09-08T09:05:25;5.03;;;2.65;;
20036;SDS011;10179;42.640;23.312;2023-09-08T09:07:51;7.32;;;2.38;;
20036;SDS011;10179;42.640;23.312;2023-09-08T09:10:17;5.78;;;2.35;;
20036;SDS011;10179;42.640;23.312;2023-09-08T09:12:43;6.25;;;2.20;;
20036;SDS011;10179;42.640;23.312;2023-09-08T09:15:08;4.15;;;2.28;;
20036;SDS011;10179;42.640;23.312;2023-09-08T09:17:34;4.45;;;2.63;;
20036;SDS011;10179;42.640;23.312;2023-09-08T09:20:16;4.28;;;2.33;;
20036;SDS011;10179;42.640;23.312;2023-09-08T09:22:45;2.90;;;2.17;;
20036;SDS011;10179;42.640;23.312;2023-09-08T09:25:24;3.53;;;2.40;;
20036;SDS011;10179;42.640;23.312;2023-09-08T09:27:51;4.85;;;2.70;;
20036;SDS011;10179;42.640;23.312;2023-09-08T09:30:21;7.72;;;2.30;;
20036;SDS011;10179;42.640;23.312;2023-09-08T09:32:47;4.97;;;2.42;;
20036;SDS011;10179;42.640;23.312;2023-09-08T09:35:15;4.10;;;2.38;;
20036;SDS011;10179;42.640;23.312;2023-09-08T09:37:42;7.22;;;2.63;;
20036;SDS011;10179;42.640;23.312;2023-09-08T09:40:07;3.67;;;2.17;;
20036;SDS011;10179;42.640;23.312;2023-09-08T09:42:37;3.67;;;2.42;;
20036;SDS011;10179;42.640;23.312;2023-09-08T09:45:04;4.97;;;2.75;;
20036;SDS011;10179;42.640;23.312;2023-09-08T09:47:30;6.80;;;2.78;;
20036;SDS011;10179;42.640;23.312;2023-09-08T09:49:56;2.50;;;1.92;;
20036;SDS011;10179;42.640;23.312;2023-09-08T09:52:23;3.83;;;2.60;;
20036;SDS011;10179;42.640;23.312;2023-09-08T09:54:52;8.35;;;2.83;;
20036;SDS011;10179;42.640;23.312;2023-09-08T09:57:20;5.47;;;2.60;;
20036;SDS011;10179;42.640;23.312;2023-09-08T09:59:47;3.95;;;2.60;;
20036;SDS011;10179;42.640;23.312;2023-09-08T10:02:16;4.15;;;2.40;;
20036;SDS011;10179;42.640;23.312;2023-09-08T10:04:45;4.70;;;2.60;;
20036;SDS011;10179;42.640;23.312;2023-09-08T10:07:12;4.20;;;2.63;;
20036;SDS011;10179;42.640;23.312;2023-09-08T10:09:40;5.07;;;2.70;;
20036;SDS011;10179;42.640;23.312;2023-09-08T10:12:05;4.15;;;2.80;;
20036;SDS011;10179;42.640;23.312;2023-09-08T10:14:35;5.57;;;2.80;;
20036;SDS011;10179;42.640;23.312;2023-09-08T10:17:01;5.55;;;3.15;;
20036;SDS011;10179;42.640;23.312;2023-09-08T10:19:27;6.20;;;2.70;;
20036;SDS011;10179;42.640;23.312;2023-09-08T10:22:00;3.55;;;2.53;;
20036;SDS011;10179;42.640;23.312;2023-09-08T10:24:28;4.47;;;2.42;;
20036;SDS011;10179;42.640;23.312;2023-09-08T10:29:29;4.43;;;2.45;;
20036;SDS011;10179;42.640;23.312;2023-09-08T10:31:56;5.07;;;2.20;;
20036;SDS011;10179;42.640;23.312;2023-09-08T10:34:23;5.20;;;2.90;;
20036;SDS011;10179;42.640;23.312;2023-09-08T10:36:51;5.10;;;2.50;;
20036;SDS011;10179;42.640;23.312;2023-09-08T10:39:33;4.43;;;2.55;;
20036;SDS011;10179;42.640;23.312;2023-09-08T10:44:41;5.10;;;2.60;;
20036;SDS011;10179;42.640;23.312;2023-09-08T10:47:26;4.32;;;2.25;;
20036;SDS011;10179;42.640;23.312;2023-09-08T10:49:59;5.72;;;2.78;;
20036;SDS011;10179;42.640;23.312;2023-09-08T10:52:25;5.30;;;2.80;;
20036;SDS011;10179;42.640;23.312;2023-09-08T10:54:52;4.47;;;2.35;;
20036;SDS011;10179;42.640;23.312;2023-09-08T10:57:20;4.50;;;2.53;;
20036;SDS011;10179;42.640;23.312;2023-09-08T10:59:54;6.40;;;2.15;;
20036;SDS011;10179;42.640;23.312;2023-09-08T11:02:36;4.45;;;2.80;;
20036;SDS011;10179;42.640;23.312;2023-09-08T11:05:03;7.82;;;2.88;;
20036;SDS011;10179;42.640;23.312;2023-09-08T11:07:32;5.65;;;3.85;;
20036;SDS011;10179;42.640;23.312;2023-09-08T11:09:58;4.20;;;2.72;;
20036;SDS011;10179;42.640;23.312;2023-09-08T11:12:27;4.70;;;2.70;;
20036;SDS011;10179;42.640;23.312;2023-09-08T11:14:53;8.00;;;2.95;;
20036;SDS011;10179;42.640;23.312;2023-09-08T11:17:18;3.92;;;2.80;;
20036;SDS011;10179;42.640;23.312;2023-09-08T11:19:47;5.95;;;2.90;;
20036;SDS011;10179;42.640;23.312;2023-09-08T11:22:14;5.65;;;2.97;;
20036;SDS011;10179;42.640;23.312;2023-09-08T11:24:44;5.30;;;3.42;;
20036;SDS011;10179;42.640;23.312;2023-09-08T11:27:10;3.50;;;2.60;;
20036;SDS011;10179;42.640;23.312;2023-09-08T11:29:36;4.68;;;2.80;;
20036;SDS011;10179;42.640;23.312;2023-09-08T11:32:02;6.60;;;2.97;;
20036;SDS011;10179;42.640;23.312;2023-09-08T11:34:31;3.40;;;2.72;;
20036;SDS011;10179;42.640;23.312;2023-09-08T11:36:56;4.20;;;2.80;;
20036;SDS011;10179;42.640;23.312;2023-09-08T11:39:25;8.80;;;3.30;;
20036;SDS011;10179;42.640;23.312;2023-09-08T11:41:50;5.88;;;2.90;;
20036;SDS011;10179;42.640;23.312;2023-09-08T11:44:17;5.80;;;3.20;;
20036;SDS011;10179;42.640;23.312;2023-09-08T11:46:43;6.53;;;3.13;;
20036;SDS011;10179;42.640;23.312;2023-09-08T11:49:09;5.93;;;2.55;;
20036;SDS011;10179;42.640;23.312;2023-09-08T11:51:34;3.97;;;2.90;;
20036;SDS011;10179;42.640;23.312;2023-09-08T11:53:59;4.63;;;2.70;;
20036;SDS011;10179;42.640;23.312;2023-09-08T11:56:25;8.15;;;2.90;;
20036;SDS011;10179;42.640;23.312;2023-09-08T11:58:51;5.15;;;2.92;;
20036;SDS011;10179;42.640;23.312;2023-09-08T12:01:18;5.80;;;2.80;;
20036;SDS011;10179;42.640;23.312;2023-09-08T12:03:53;5.82;;;2.90;;
20036;SDS011;10179;42.640;23.312;2023-09-08T12:06:19;5.47;;;3.13;;
20036;SDS011;10179;42.640;23.312;2023-09-08T12:11:18;4.97;;;3.22;;
20036;SDS011;10179;42.640;23.312;2023-09-08T12:13:43;5.13;;;2.95;;
20036;SDS011;10179;42.640;23.312;2023-09-08T12:16:21;7.55;;;2.95;;
20036;SDS011;10179;42.640;23.312;2023-09-08T12:18:49;4.22;;;2.78;;
20036;SDS011;10179;42.640;23.312;2023-09-08T12:21:15;7.32;;;2.80;;
20036;SDS011;10179;42.640;23.312;2023-09-08T12:23:47;5.47;;;3.25;;
20036;SDS011;10179;42.640;23.312;2023-09-08T12:26:14;8.65;;;2.70;;
20036;SDS011;10179;42.640;23.312;2023-09-08T12:28:41;7.43;;;2.47;;
20036;SDS011;10179;42.640;23.312;2023-09-08T12:31:07;6.07;;;3.15;;
20036;SDS011;10179;42.640;23.312;2023-09-08T12:33:37;3.65;;;2.60;;
20036;SDS011;10179;42.640;23.312;2023-09-08T12:36:15;13.05;;;3.38;;
20036;SDS011;10179;42.640;23.312;2023-09-08T12:38:51;4.68;;;3.05;;
20036;SDS011;10179;42.640;23.312;2023-09-08T12:41:17;5.65;;;3.20;;
20036;SDS011;10179;42.640;23.312;2023-09-08T12:43:44;7.43;;;2.88;;
20036;SDS011;10179;42.640;23.312;2023-09-08T12:46:10;6.13;;;2.92;;
20036;SDS011;10179;42.640;23.312;2023-09-08T12:48:35;8.32;;;2.92;;
20036;SDS011;10179;42.640;23.312;2023-09-08T12:51:02;7.38;;;3.08;;
20036;SDS011;10179;42.640;23.312;2023-09-08T12:53:29;6.30;;;3.45;;
20036;SDS011;10179;42.640;23.312;2023-09-08T12:55:58;7.35;;;2.92;;
20036;SDS011;10179;42.640;23.312;2023-09-08T12:58:23;9.57;;;3.20;;
20036;SDS011;10179;42.640;23.312;2023-09-08T13:00:49;6.15;;;2.72;;
20036;SDS011;10179;42.640;23.312;2023-09-08T13:03:15;8.73;;;3.67;;
20036;SDS011;10179;42.640;23.312;2023-09-08T13:05:40;6.95;;;3.05;;
20036;SDS011;10179;42.640;23.312;2023-09-08T13:08:06;4.40;;;2.85;;
20036;SDS011;10179;42.640;23.312;2023-09-08T13:10:31;11.45;;;3.35;;
20036;SDS011;10179;42.640;23.312;2023-09-08T13:12:57;6.75;;;2.95;;
20036;SDS011;10179;42.640;23.312;2023-09-08T13:15:22;8.13;;;2.88;;
20036;SDS011;10179;42.640;23.312;2023-09-08T13:17:48;5.18;;;2.92;;
20036;SDS011;10179;42.640;23.312;2023-09-08T13:20:14;10.18;;;3.03;;
20036;SDS011;10179;42.640;23.312;2023-09-08T13:22:39;10.07;;;3.33;;
20036;SDS011;10179;42.640;23.312;2023-09-08T13:25:05;6.28;;;2.92;;
20036;SDS011;10179;42.640;23.312;2023-09-08T13:27:30;4.72;;;3.05;;
20036;SDS011;10179;42.640;23.312;2023-09-08T13:30:11;4.82;;;3.05;;
20036;SDS011;10179;42.640;23.312;2023-09-08T13:32:38;6.10;;;2.72;;
20036;SDS011;10179;42.640;23.312;2023-09-08T13:35:05;5.45;;;3.15;;
20036;SDS011;10179;42.640;23.312;2023-09-08T13:37:31;5.53;;;3.17;;
20036;SDS011;10179;42.640;23.312;2023-09-08T13:39:57;7.60;;;3.13;;
20036;SDS011;10179;42.640;23.312;2023-09-08T13:42:22;5.88;;;2.92;;
20036;SDS011;10179;42.640;23.312;2023-09-08T13:44:47;4.68;;;3.15;;
20036;SDS011;10179;42.640;23.312;2023-09-08T13:47:13;11.32;;;3.92;;
20036;SDS011;10179;42.640;23.312;2023-09-08T13:49:38;8.10;;;3.03;;
20036;SDS011;10179;42.640;23.312;2023-09-08T13:52:04;6.68;;;2.92;;
20036;SDS011;10179;42.640;23.312;2023-09-08T13:54:30;5.53;;;3.50;;
20036;SDS011;10179;42.640;23.312;2023-09-08T13:56:59;5.22;;;2.58;;
20036;SDS011;10179;42.640;23.312;2023-09-08T13:59:26;8.48;;;3.35;;
20036;SDS011;10179;42.640;23.312;2023-09-08T14:01:53;4.45;;;3.10;;
20036;SDS011;10179;42.640;23.312;2023-09-08T14:04:19;5.05;;;2.85;;
20036;SDS011;10179;42.640;23.312;2023-09-08T14:06:45;4.20;;;2.67;;
20036;SDS011;10179;42.640;23.312;2023-09-08T14:09:10;7.53;;;3.47;;
20036;SDS011;10179;42.640;23.312;2023-09-08T14:11:35;5.85;;;2.55;;
20036;SDS011;10179;42.640;23.312;2023-09-08T14:14:01;4.85;;;3.10;;
20036;SDS011;10179;42.640;23.312;2023-09-08T14:16:26;7.03;;;3.13;;
20036;SDS011;10179;42.640;23.312;2023-09-08T14:18:52;5.70;;;3.05;;
20036;SDS011;10179;42.640;23.312;2023-09-08T14:21:17;5.07;;;3.20;;
20036;SDS011;10179;42.640;23.312;2023-09-08T14:23:43;5.30;;;2.97;;
20036;SDS011;10179;42.640;23.312;2023-09-08T14:26:08;5.22;;;3.05;;
20036;SDS011;10179;42.640;23.312;2023-09-08T14:28:34;5.53;;;2.90;;
20036;SDS011;10179;42.640;23.312;2023-09-08T14:30:59;3.47;;;2.58;;
20036;SDS011;10179;42.640;23.312;2023-09-08T14:33:25;4.28;;;2.88;;
20036;SDS011;10179;42.640;23.312;2023-09-08T14:35:50;7.57;;;3.10;;
20036;SDS011;10179;42.640;23.312;2023-09-08T14:38:16;7.60;;;3.15;;
20036;SDS011;10179;42.640;23.312;2023-09-08T14:40:43;5.97;;;2.42;;